Aviation Digital Data Service (ADDS)

Output produced by METARs form (0347 UTC 18 June 2019)
found at http://www.aviationweather.gov/metar/data/
 
Forecast for: KSAT (SAN ANTONIO , TX, US)
Text: KSAT 172321Z 1800/1906 12004KT P6SM FEW050 FEW250
Forecast period: 0000 to 0800 UTC 18 June 2019
Forecast type: FROM: standard forecast or significant change
Winds: from the ESE (120 degrees) at 5 MPH (4 knots; 2.1 m/s)
Visibility: 6 or more miles 10+ km)
Ceiling: at least 12,000 feet AGL
Clouds: few clouds at 5000 feet AGL
few clouds at 25000 feet AGL
Weather: no significant weather forecast for this period
Text: FM180800 12004KT P6SM BKN015
Forecast period: 0800 to 1600 UTC 18 June 2019
Forecast type: FROM: standard forecast or significant change
Winds: from the ESE (120 degrees) at 5 MPH (4 knots; 2.1 m/s)
Visibility: 6 or more miles 10+ km)
Ceiling: 1500 feet AGL
Clouds: broken clouds at 1500 feet AGL
Weather: no significant weather forecast for this period
Text: FM181600 16008KT P6SM FEW050 SCT250
Forecast period: 1600 UTC 18 June 2019 to 0600 UTC 19 June 2019
Forecast type: FROM: standard forecast or significant change
Winds: from the SSE (160 degrees) at 9 MPH (8 knots; 4.1 m/s)
Visibility: 6 or more miles 10+ km)
Ceiling: at least 12,000 feet AGL
Clouds: few clouds at 5000 feet AGL
scattered clouds at 25000 feet AGL
Weather: no significant weather forecast for this period